createdAt,value
2023-04-29T00:02:14.456Z,13.89
2023-04-29T00:04:41.232Z,13.88
2023-04-29T00:07:08.935Z,13.81
2023-04-29T00:09:36.275Z,13.74
2023-04-29T00:12:02.745Z,13.77
2023-04-29T00:14:29.152Z,13.72
2023-04-29T00:16:55.558Z,13.68
2023-04-29T00:19:22.048Z,13.73
2023-04-29T00:21:48.870Z,13.75
2023-04-29T00:24:15.556Z,13.74
2023-04-29T00:26:42.149Z,13.74
2023-04-29T00:29:08.513Z,13.75
2023-04-29T00:31:35.195Z,13.75
2023-04-29T00:34:01.710Z,13.72
2023-04-29T00:36:28.319Z,13.74
2023-04-29T00:38:56.229Z,13.79
2023-04-29T00:41:23.234Z,13.75
2023-04-29T00:43:49.696Z,13.75
2023-04-29T00:46:16.222Z,13.68
2023-04-29T00:48:42.660Z,13.66
2023-04-29T00:51:09.298Z,13.59
2023-04-29T00:53:35.840Z,13.54
2023-04-29T00:56:02.919Z,13.59
2023-04-29T00:58:35.181Z,13.62
2023-04-29T01:01:04.002Z,13.64
2023-04-29T01:03:32.020Z,13.61
2023-04-29T01:06:21.090Z,13.60
2023-04-29T01:08:56.799Z,13.62
2023-04-29T01:11:27.967Z,13.53
2023-04-29T01:14:00.729Z,13.48
2023-04-29T01:16:51.907Z,13.55
2023-04-29T01:19:48.069Z,13.60
2023-04-29T01:22:14.775Z,13.62
2023-04-29T01:24:41.135Z,13.59
2023-04-29T01:27:13.737Z,13.53
2023-04-29T01:29:53.672Z,13.55
2023-04-29T01:32:37.313Z,13.58
2023-04-29T01:35:09.724Z,13.58
2023-04-29T01:37:45.597Z,13.52
2023-04-29T01:40:37.711Z,13.47
2023-04-29T01:43:08.111Z,13.39
2023-04-29T01:45:36.471Z,13.36
2023-04-29T01:48:04.743Z,13.37
2023-04-29T01:50:31.354Z,13.25
2023-04-29T01:52:58.506Z,13.17
2023-04-29T01:55:25.683Z,13.18
2023-04-29T01:57:52.205Z,13.15
2023-04-29T02:00:18.726Z,13.09
2023-04-29T02:02:45.177Z,13.01
2023-04-29T02:05:11.644Z,12.99
2023-04-29T02:07:38.195Z,12.96
2023-04-29T02:10:04.879Z,12.84
2023-04-29T02:12:31.292Z,12.85
2023-04-29T02:14:57.785Z,12.88
2023-04-29T02:17:24.208Z,12.98
2023-04-29T02:19:50.868Z,13.01
2023-04-29T02:22:17.398Z,12.95
2023-04-29T02:24:43.761Z,12.83
2023-04-29T02:27:10.184Z,12.85
2023-04-29T02:29:37.188Z,12.75
2023-04-29T02:32:03.711Z,12.74
2023-04-29T02:34:31.221Z,12.75
2023-04-29T02:36:57.890Z,12.72
2023-04-29T02:39:24.736Z,12.69
2023-04-29T02:41:54.608Z,12.70
2023-04-29T02:44:21.627Z,12.75
2023-04-29T02:46:48.004Z,12.69
2023-04-29T02:49:14.315Z,12.69
2023-04-29T02:51:41.474Z,12.70
2023-04-29T02:54:07.941Z,12.75
2023-04-29T02:56:34.310Z,12.64
2023-04-29T02:59:00.838Z,12.57
2023-04-29T03:01:27.259Z,12.60
2023-04-29T03:03:54.733Z,12.65
2023-04-29T03:06:21.542Z,12.71
2023-04-29T03:08:47.850Z,12.63
2023-04-29T03:11:14.224Z,12.57
2023-04-29T03:13:40.706Z,12.56
2023-04-29T03:16:07.313Z,12.48
2023-04-29T03:18:33.726Z,12.39
2023-04-29T03:21:00.187Z,12.37
2023-04-29T03:23:26.843Z,12.45
2023-04-29T03:25:55.634Z,12.44
2023-04-29T03:28:22.284Z,12.37
2023-04-29T03:30:48.611Z,12.29
2023-04-29T03:33:14.962Z,12.12
2023-04-29T03:35:41.324Z,12.07
2023-04-29T03:38:07.674Z,12.19
2023-04-29T03:40:34.076Z,12.19
2023-04-29T03:43:01.167Z,12.22
2023-04-29T03:45:27.511Z,12.27
2023-04-29T03:47:54.732Z,12.12
2023-04-29T03:50:21.458Z,12.10
2023-04-29T03:52:47.838Z,12.14
2023-04-29T03:55:14.263Z,12.07
2023-04-29T03:57:42.432Z,12.02
2023-04-29T04:00:09.616Z,11.99
2023-04-29T04:02:36.219Z,12.00
2023-04-29T04:05:03.061Z,12.06
2023-04-29T04:07:29.443Z,12.04
2023-04-29T04:09:55.833Z,11.99
2023-04-29T04:12:22.311Z,12.02
2023-04-29T04:14:48.668Z,11.97
2023-04-29T04:17:15.036Z,11.94
2023-04-29T04:19:41.542Z,11.88
2023-04-29T04:22:08.128Z,11.93
2023-04-29T04:24:34.504Z,11.95
2023-04-29T04:27:01.750Z,11.94
2023-04-29T04:29:28.106Z,11.90
2023-04-29T04:31:54.734Z,11.83
2023-04-29T04:34:21.280Z,11.79
2023-04-29T04:36:47.629Z,11.78
2023-04-29T04:39:14.048Z,11.79
2023-04-29T04:41:40.468Z,11.79
2023-04-29T04:44:07.094Z,11.82
2023-04-29T04:46:33.443Z,11.80
2023-04-29T04:48:59.883Z,11.82
2023-04-29T04:51:28.633Z,11.84
2023-04-29T04:53:55.059Z,11.80
2023-04-29T04:56:22.073Z,11.70
2023-04-29T04:58:48.450Z,11.57
2023-04-29T05:01:14.917Z,11.62
2023-04-29T05:03:41.572Z,11.66
2023-04-29T05:06:08.152Z,11.69
2023-04-29T05:08:34.502Z,11.71
2023-04-29T05:11:00.997Z,11.72
2023-04-29T05:13:27.432Z,11.73
2023-04-29T05:15:53.835Z,11.74
2023-04-29T05:18:20.805Z,11.71
2023-04-29T05:20:47.198Z,11.73
2023-04-29T05:23:13.518Z,11.73
2023-04-29T05:25:40.332Z,11.73
2023-04-29T05:28:07.240Z,11.76
2023-04-29T05:30:33.625Z,11.74
2023-04-29T05:33:00.261Z,11.74
2023-04-29T05:35:26.855Z,11.71
2023-04-29T05:37:53.206Z,11.70
2023-04-29T05:40:19.589Z,11.73
2023-04-29T05:42:47.019Z,11.70
2023-04-29T05:45:13.449Z,11.65
2023-04-29T05:47:40.049Z,11.62
2023-04-29T05:50:07.042Z,11.63
2023-04-29T05:52:33.412Z,11.70
2023-04-29T05:54:59.778Z,11.68
2023-04-29T05:57:26.112Z,11.73
2023-04-29T05:59:55.150Z,11.77
2023-04-29T06:02:21.885Z,11.81
2023-04-29T06:04:48.669Z,11.77
2023-04-29T06:07:15.475Z,11.75
2023-04-29T06:09:42.889Z,11.78
2023-04-29T06:12:09.436Z,11.73
2023-04-29T06:14:35.837Z,11.71
2023-04-29T06:17:02.475Z,11.69
2023-04-29T06:19:28.785Z,11.74
2023-04-29T06:21:55.202Z,11.71
2023-04-29T06:24:21.611Z,11.71
2023-04-29T06:26:48.746Z,11.77
2023-04-29T06:29:15.275Z,11.85
2023-04-29T06:31:41.857Z,11.92
2023-04-29T06:34:08.332Z,11.93
2023-04-29T06:36:34.700Z,11.99
2023-04-29T06:39:01.148Z,11.92
2023-04-29T06:41:27.817Z,11.96
2023-04-29T06:43:54.129Z,12.08
2023-04-29T06:46:20.615Z,12.14
2023-04-29T06:48:46.971Z,12.17
2023-04-29T06:51:13.308Z,12.30
2023-04-29T06:53:39.686Z,12.24
2023-04-29T06:56:06.822Z,12.29
2023-04-29T06:58:33.215Z,12.26
2023-04-29T07:00:59.762Z,12.22
2023-04-29T07:03:26.421Z,12.24
2023-04-29T07:05:52.805Z,12.21
2023-04-29T07:08:19.203Z,12.14
2023-04-29T07:10:53.952Z,12.14
2023-04-29T07:13:20.442Z,12.18
2023-04-29T07:15:46.874Z,12.18
2023-04-29T07:18:13.305Z,12.24
2023-04-29T07:20:39.750Z,12.19
2023-04-29T07:23:06.173Z,12.12
2023-04-29T07:25:33.079Z,12.14
2023-04-29T07:28:00.437Z,12.08
2023-04-29T07:30:26.799Z,12.12
2023-04-29T07:32:53.185Z,12.17
2023-04-29T07:35:19.775Z,12.21
2023-04-29T07:37:46.339Z,12.23
2023-04-29T07:40:13.423Z,12.23
2023-04-29T07:42:39.840Z,12.22
2023-04-29T07:45:06.920Z,12.23
2023-04-29T07:47:33.274Z,12.24
2023-04-29T07:49:59.981Z,12.23
2023-04-29T07:52:26.678Z,12.21
2023-04-29T07:54:55.681Z,12.20
2023-04-29T07:57:22.684Z,12.19
2023-04-29T07:59:53.583Z,12.16
2023-04-29T08:02:20.645Z,12.17
2023-04-29T08:04:47.386Z,12.19
2023-04-29T08:07:14.489Z,12.18
2023-04-29T08:09:40.855Z,12.20
2023-04-29T08:12:07.359Z,12.30
2023-04-29T08:14:33.830Z,12.33
2023-04-29T08:17:00.178Z,12.32
2023-04-29T08:19:26.591Z,12.32
2023-04-29T08:21:53.217Z,12.28
2023-04-29T08:24:20.837Z,12.31
2023-04-29T08:26:47.557Z,12.36
2023-04-29T08:29:13.971Z,12.44
2023-04-29T08:31:41.124Z,12.47
2023-04-29T08:34:07.598Z,12.59
2023-04-29T08:36:34.107Z,12.65
2023-04-29T08:39:00.545Z,12.74
2023-04-29T08:41:27.161Z,12.82
2023-04-29T08:43:53.572Z,12.85
2023-04-29T08:46:20.884Z,12.92
2023-04-29T08:48:48.381Z,12.87
2023-04-29T08:51:15.085Z,12.80
2023-04-29T08:53:41.669Z,12.83
2023-04-29T08:56:13.308Z,12.80
2023-04-29T08:58:40.874Z,12.81
2023-04-29T09:01:11.110Z,12.86
2023-04-29T09:04:09.396Z,12.88
2023-04-29T09:06:35.842Z,12.83
2023-04-29T09:09:03.743Z,12.84
2023-04-29T09:11:30.449Z,12.79
2023-04-29T09:14:00.726Z,12.76
2023-04-29T09:16:28.165Z,12.76
2023-04-29T09:18:55.237Z,12.69
2023-04-29T09:21:24.098Z,12.66
2023-04-29T09:23:58.924Z,12.70
2023-04-29T09:26:26.115Z,12.67
2023-04-29T09:29:18.333Z,12.68
2023-04-29T09:31:45.992Z,12.63
2023-04-29T09:34:13.053Z,12.66
2023-04-29T09:36:45.798Z,12.76
2023-04-29T09:39:16.456Z,12.78
2023-04-29T09:41:52.233Z,12.78
2023-04-29T09:44:27.320Z,12.69
2023-04-29T09:46:57.499Z,12.59
2023-04-29T09:49:32.707Z,12.60
2023-04-29T09:52:01.928Z,12.57
2023-04-29T09:54:30.477Z,12.52
2023-04-29T09:56:59.203Z,12.60
2023-04-29T09:59:26.504Z,12.67
2023-04-29T10:01:54.691Z,12.67
2023-04-29T10:04:27.406Z,12.69
2023-04-29T10:06:55.593Z,12.72
2023-04-29T10:09:23.538Z,12.70
2023-04-29T10:11:54.150Z,12.68
2023-04-29T10:14:27.382Z,12.70
2023-04-29T10:17:09.577Z,12.74
2023-04-29T10:19:43.621Z,12.69
2023-04-29T10:22:14.470Z,12.62
2023-04-29T10:24:43.042Z,12.66
2023-04-29T10:27:12.608Z,12.65
2023-04-29T10:29:40.290Z,12.70
2023-04-29T10:32:12.503Z,12.65
2023-04-29T10:34:41.810Z,12.57
2023-04-29T10:37:09.932Z,12.57
2023-04-29T10:39:52.883Z,12.59
2023-04-29T10:42:36.441Z,12.57
2023-04-29T10:45:19.922Z,12.62
2023-04-29T10:48:13.247Z,12.50
2023-04-29T10:50:46.889Z,12.50
2023-04-29T10:53:19.250Z,12.44
2023-04-29T10:55:59.618Z,12.40
2023-04-29T10:58:55.503Z,12.30
2023-04-29T11:01:41.420Z,12.30
2023-04-29T11:04:09.689Z,12.29
2023-04-29T11:06:35.994Z,12.32
2023-04-29T11:09:19.843Z,12.35
2023-04-29T11:11:55.141Z,12.38
2023-04-29T11:14:25.178Z,12.39
2023-04-29T11:16:53.838Z,12.32
2023-04-29T11:19:20.719Z,12.38
2023-04-29T11:21:47.642Z,12.39
2023-04-29T11:24:16.151Z,12.37
2023-04-29T11:26:43.588Z,12.35
2023-04-29T11:29:12.854Z,12.33
2023-04-29T11:31:39.715Z,12.32
2023-04-29T11:34:07.247Z,12.31
2023-04-29T11:36:34.476Z,12.36
2023-04-29T11:39:03.632Z,12.40
2023-04-29T11:41:31.529Z,12.45
2023-04-29T11:43:59.798Z,12.43
2023-04-29T11:46:28.179Z,12.54
2023-04-29T11:48:54.587Z,12.67
2023-04-29T11:51:22.435Z,12.68
2023-04-29T11:53:48.996Z,12.53
2023-04-29T11:56:15.655Z,12.43
2023-04-29T11:58:43.135Z,12.50
2023-04-29T12:01:09.715Z,12.59
2023-04-29T12:03:36.652Z,12.67
2023-04-29T12:06:03.493Z,12.77
2023-04-29T12:08:30.590Z,12.77
2023-04-29T12:10:59.049Z,12.77
2023-04-29T12:13:28.435Z,12.82
2023-04-29T12:15:56.502Z,12.88
2023-04-29T12:18:23.409Z,12.93
2023-04-29T12:20:55.842Z,12.90
2023-04-29T12:23:24.127Z,12.86
2023-04-29T12:25:52.114Z,12.92
2023-04-29T12:28:19.245Z,12.97
2023-04-29T12:30:50.427Z,12.96
2023-04-29T12:33:21.940Z,12.97
2023-04-29T12:35:50.164Z,13.00
2023-04-29T12:38:20.674Z,13.04
2023-04-29T12:40:47.193Z,13.09
2023-04-29T12:43:13.653Z,13.08
2023-04-29T12:45:40.519Z,13.21
2023-04-29T12:48:10.039Z,13.24
2023-04-29T12:50:49.699Z,13.29
2023-04-29T12:53:16.272Z,13.26
2023-04-29T12:55:42.649Z,13.32
2023-04-29T12:58:09.582Z,13.46
2023-04-29T13:00:37.748Z,13.53
2023-04-29T13:03:04.408Z,13.67
2023-04-29T13:05:31.113Z,13.76
2023-04-29T13:07:57.526Z,13.77
2023-04-29T13:10:24.057Z,13.83
2023-04-29T13:12:50.625Z,13.95
2023-04-29T13:15:16.935Z,14.04
2023-04-29T13:17:43.322Z,14.15
2023-04-29T13:20:11.817Z,14.18
2023-04-29T13:22:38.319Z,14.27
2023-04-29T13:25:05.373Z,14.26
2023-04-29T13:27:32.134Z,14.23
2023-04-29T13:29:58.599Z,14.30
2023-04-29T13:32:25.248Z,14.42
2023-04-29T13:34:51.992Z,14.47
2023-04-29T13:37:19.779Z,14.62
2023-04-29T13:39:47.978Z,14.73
2023-04-29T13:42:15.408Z,14.71
2023-04-29T13:44:52.781Z,14.60
2023-04-29T13:47:25.704Z,14.56
2023-04-29T13:55:18.414Z,14.76
2023-04-29T14:00:25.173Z,14.60
2023-04-29T14:05:25.721Z,14.62
2023-04-29T14:07:52.296Z,14.64
2023-04-29T14:10:18.927Z,14.66
2023-04-29T14:12:45.608Z,14.60
2023-04-29T14:15:12.157Z,14.56
2023-04-29T14:17:38.631Z,14.55
2023-04-29T14:20:05.655Z,14.56
2023-04-29T14:22:32.257Z,14.54
2023-04-29T14:24:58.801Z,14.59
2023-04-29T14:27:25.115Z,14.51
2023-04-29T14:29:51.441Z,14.41
2023-04-29T14:32:17.762Z,14.40
2023-04-29T14:34:44.151Z,14.47
2023-04-29T14:37:10.834Z,14.52
2023-04-29T14:39:38.404Z,14.46
2023-04-29T14:42:05.291Z,14.50
2023-04-29T14:44:31.807Z,14.61
2023-04-29T14:46:58.186Z,14.54
2023-04-29T14:49:24.527Z,14.56
2023-04-29T14:51:51.253Z,14.55
2023-04-29T14:54:17.799Z,14.53
2023-04-29T14:56:44.194Z,14.52
2023-04-29T14:59:11.139Z,14.60
2023-04-29T15:01:39.584Z,14.68
2023-04-29T15:04:06.264Z,14.63
2023-04-29T15:06:32.973Z,14.66
2023-04-29T15:08:59.403Z,14.68
2023-04-29T15:11:26.054Z,14.62
2023-04-29T15:13:52.418Z,14.60
2023-04-29T15:16:19.333Z,14.52
2023-04-29T15:18:46.422Z,14.56
2023-04-29T15:21:12.965Z,14.68
2023-04-29T15:23:39.518Z,14.79
2023-04-29T15:26:06.983Z,14.72
2023-04-29T15:28:33.509Z,14.78
2023-04-29T15:31:01.719Z,14.86
2023-04-29T15:33:28.071Z,14.96
2023-04-29T15:35:56.272Z,15.03
2023-04-29T15:38:22.734Z,15.06
2023-04-29T15:40:49.094Z,15.09
2023-04-29T15:43:15.526Z,15.03
2023-04-29T15:45:42.672Z,15.08
2023-04-29T15:48:09.119Z,15.08
2023-04-29T15:50:35.629Z,15.06
2023-04-29T15:53:02.834Z,15.05
2023-04-29T15:55:29.215Z,15.02
2023-04-29T15:57:55.878Z,15.04
2023-04-29T16:00:22.280Z,15.04
2023-04-29T16:02:48.684Z,15.04
2023-04-29T16:05:15.279Z,14.98
2023-04-29T16:07:41.646Z,14.91
2023-04-29T16:10:08.211Z,14.96
2023-04-29T16:12:34.600Z,15.01
2023-04-29T16:15:01.006Z,15.01
2023-04-29T16:17:27.500Z,14.97
2023-04-29T16:19:54.376Z,14.99
2023-04-29T16:22:21.090Z,15.04
2023-04-29T16:24:49.365Z,15.12
2023-04-29T16:27:17.492Z,15.13
2023-04-29T16:29:43.905Z,15.05
2023-04-29T16:32:10.241Z,15.04
2023-04-29T16:34:37.519Z,14.96
2023-04-29T16:37:03.930Z,14.95
2023-04-29T16:39:30.333Z,14.96
2023-04-29T16:41:56.731Z,14.91
2023-04-29T16:44:23.086Z,14.88
2023-04-29T16:46:49.441Z,14.90
2023-04-29T16:49:21.554Z,14.86
2023-04-29T16:51:48.797Z,14.96
2023-04-29T16:54:15.116Z,14.95
2023-04-29T16:56:41.563Z,14.98
2023-04-29T16:59:08.349Z,14.97
2023-04-29T17:01:34.807Z,14.95
2023-04-29T17:04:01.552Z,14.94
2023-04-29T17:06:28.017Z,14.94
2023-04-29T17:08:54.410Z,14.92
2023-04-29T17:11:20.856Z,14.93
2023-04-29T17:13:47.239Z,14.95
2023-04-29T17:16:16.180Z,14.98
2023-04-29T17:18:43.053Z,15.00
2023-04-29T17:21:09.382Z,15.03
2023-04-29T17:23:35.990Z,15.03
2023-04-29T17:26:04.244Z,15.00
2023-04-29T17:28:30.758Z,15.07
2023-04-29T17:31:00.057Z,15.05
2023-04-29T17:33:34.566Z,15.02
2023-04-29T17:36:01.821Z,15.00
2023-04-29T17:38:29.356Z,14.97
2023-04-29T17:40:56.240Z,14.93
2023-04-29T17:43:22.629Z,15.01
2023-04-29T17:45:49.120Z,15.00
2023-04-29T17:48:18.464Z,14.98
2023-04-29T17:50:46.001Z,14.97
2023-04-29T17:53:12.905Z,14.98
2023-04-29T17:55:40.163Z,14.91
2023-04-29T17:58:07.093Z,14.95
2023-04-29T18:00:35.105Z,14.91
2023-04-29T18:03:02.835Z,14.96
2023-04-29T18:05:29.395Z,14.92
2023-04-29T18:07:55.714Z,14.96
2023-04-29T18:10:22.414Z,14.95
2023-04-29T18:12:48.723Z,14.92
2023-04-29T18:15:16.445Z,14.83
2023-04-29T18:17:43.767Z,14.81
2023-04-29T18:20:11.649Z,14.83
2023-04-29T18:22:37.953Z,14.77
2023-04-29T18:25:04.794Z,14.72
2023-04-29T18:27:31.193Z,14.71
2023-04-29T18:29:57.483Z,14.70
2023-04-29T18:32:23.986Z,14.64
2023-04-29T18:34:50.374Z,14.67
2023-04-29T18:37:16.770Z,14.62
2023-04-29T18:39:43.110Z,14.59
2023-04-29T18:42:09.467Z,14.57
2023-04-29T18:44:36.014Z,14.56
2023-04-29T18:47:02.579Z,14.56
2023-04-29T18:49:30.261Z,14.51
2023-04-29T18:51:56.853Z,14.48
2023-04-29T18:54:23.229Z,14.50
2023-04-29T18:56:49.982Z,14.51
2023-04-29T18:59:19.650Z,14.48
2023-04-29T19:01:47.222Z,14.43
2023-04-29T19:04:14.041Z,14.35
2023-04-29T19:06:40.790Z,14.30
2023-04-29T19:09:07.420Z,14.26
2023-04-29T19:11:33.879Z,14.25
2023-04-29T19:14:00.263Z,14.24
2023-04-29T19:16:26.825Z,14.19
2023-04-29T19:18:53.315Z,14.12
2023-04-29T19:21:20.161Z,14.00
2023-04-29T19:23:46.982Z,13.96
2023-04-29T19:26:13.420Z,13.91
2023-04-29T19:28:39.782Z,13.91
2023-04-29T19:31:06.433Z,13.81
2023-04-29T19:33:32.923Z,13.84
2023-04-29T19:35:59.360Z,13.71
2023-04-29T19:38:26.080Z,13.65
2023-04-29T19:40:56.525Z,13.68
2023-04-29T19:43:23.361Z,13.63
2023-04-29T19:45:50.369Z,13.59
2023-04-29T19:48:17.245Z,13.59
2023-04-29T19:50:43.706Z,13.53
2023-04-29T19:53:11.387Z,13.57
2023-04-29T19:55:39.637Z,13.47
2023-04-29T19:58:06.490Z,13.46
2023-04-29T20:00:33.515Z,13.40
2023-04-29T20:03:00.007Z,13.35
2023-04-29T20:05:26.490Z,13.29
2023-04-29T20:07:52.905Z,13.31
2023-04-29T20:10:19.237Z,13.33
2023-04-29T20:12:46.580Z,13.29
2023-04-29T20:15:13.073Z,13.26
2023-04-29T20:17:39.446Z,13.21
2023-04-29T20:20:08.981Z,13.19
2023-04-29T20:22:35.650Z,13.17
2023-04-29T20:25:02.717Z,13.22
2023-04-29T20:27:29.180Z,13.25
2023-04-29T20:29:55.930Z,13.26
2023-04-29T20:32:22.589Z,13.33
2023-04-29T20:34:49.190Z,13.31
2023-04-29T20:37:15.775Z,13.27
2023-04-29T20:39:43.472Z,13.25
2023-04-29T20:42:09.962Z,13.25
2023-04-29T20:44:38.390Z,13.28
2023-04-29T20:47:05.725Z,13.21
2023-04-29T20:49:32.651Z,13.16
2023-04-29T20:51:59.797Z,13.12
2023-04-29T20:54:26.354Z,13.12
2023-04-29T20:56:52.806Z,13.06
2023-04-29T20:59:19.159Z,13.04
2023-04-29T21:01:46.293Z,12.98
2023-04-29T21:04:12.904Z,12.97
2023-04-29T21:06:39.397Z,12.97
2023-04-29T21:09:05.920Z,12.94
2023-04-29T21:11:32.358Z,12.95
2023-04-29T21:13:58.962Z,12.87
2023-04-29T21:16:25.707Z,12.82
2023-04-29T21:18:52.410Z,12.81
2023-04-29T21:21:18.851Z,12.84
2023-04-29T21:23:45.318Z,12.85
2023-04-29T21:26:14.752Z,12.78
2023-04-29T21:28:41.605Z,12.77
2023-04-29T21:31:09.589Z,12.71
2023-04-29T21:33:35.976Z,12.66
2023-04-29T21:36:02.342Z,12.68
2023-04-29T21:38:28.769Z,12.67
2023-04-29T21:40:59.349Z,12.63
2023-04-29T21:43:27.621Z,12.59
2023-04-29T21:45:54.702Z,12.54
2023-04-29T21:48:21.861Z,12.54
2023-04-29T21:50:48.242Z,12.50
2023-04-29T21:53:16.450Z,12.49
2023-04-29T21:55:43.225Z,12.46
2023-04-29T21:58:10.864Z,12.39
2023-04-29T22:00:39.064Z,12.27
2023-04-29T22:03:10.324Z,12.24
2023-04-29T22:05:37.280Z,12.19
2023-04-29T22:08:06.953Z,12.10
2023-04-29T22:10:33.567Z,12.05
2023-04-29T22:12:59.967Z,11.97
2023-04-29T22:15:28.802Z,11.91
2023-04-29T22:17:55.668Z,11.86
2023-04-29T22:20:22.149Z,11.82
2023-04-29T22:22:48.509Z,11.79
2023-04-29T22:25:14.936Z,11.68
2023-04-29T22:27:41.371Z,11.63
2023-04-29T22:30:08.387Z,11.62
2023-04-29T22:32:34.970Z,11.55
2023-04-29T22:35:01.448Z,11.52
2023-04-29T22:37:27.855Z,11.53
2023-04-29T22:39:54.508Z,11.44
2023-04-29T22:42:21.020Z,11.43
2023-04-29T22:44:47.359Z,11.40
2023-04-29T22:47:14.054Z,11.34
2023-04-29T22:49:41.018Z,11.27
2023-04-29T22:52:07.530Z,11.14
2023-04-29T22:54:33.947Z,11.04
2023-04-29T22:57:00.249Z,11.01
2023-04-29T22:59:26.617Z,11.05
2023-04-29T23:01:53.232Z,10.97
2023-04-29T23:04:20.350Z,10.99
2023-04-29T23:06:46.903Z,10.88
2023-04-29T23:09:13.305Z,10.89
2023-04-29T23:11:39.791Z,10.81
2023-04-29T23:14:06.187Z,10.86
2023-04-29T23:16:33.013Z,10.85
2023-04-29T23:18:59.517Z,10.78
2023-04-29T23:21:27.094Z,10.72
2023-04-29T23:23:54.169Z,10.72
2023-04-29T23:26:20.768Z,10.70
2023-04-29T23:28:47.114Z,10.66
2023-04-29T23:31:13.587Z,10.58
2023-04-29T23:33:39.887Z,10.56
2023-04-29T23:36:06.517Z,10.54
2023-04-29T23:38:32.980Z,10.56
2023-04-29T23:40:59.283Z,10.50
2023-04-29T23:43:25.784Z,10.37
2023-04-29T23:45:52.967Z,10.31
2023-04-29T23:48:19.362Z,10.28
2023-04-29T23:50:47.118Z,10.24
2023-04-29T23:53:13.566Z,10.22
2023-04-29T23:55:40.016Z,10.21
2023-04-29T23:58:07.511Z,10.18
